createdAt,value
2018-05-10T00:00:38.657Z,963.29
2018-05-10T00:01:38.655Z,963.33
2018-05-10T00:02:38.647Z,963.32
2018-05-10T00:03:38.641Z,963.29
2018-05-10T00:04:38.634Z,963.31
2018-05-10T00:05:38.634Z,963.30
2018-05-10T00:06:38.620Z,963.30
2018-05-10T00:07:38.616Z,963.29
2018-05-10T00:08:38.610Z,963.28
2018-05-10T00:09:38.602Z,963.29
2018-05-10T00:10:38.598Z,963.32
2018-05-10T00:11:38.591Z,963.35
2018-05-10T00:12:38.586Z,963.33
2018-05-10T00:13:38.580Z,963.38
2018-05-10T00:14:38.570Z,963.39
2018-05-10T00:15:38.568Z,963.38
2018-05-10T00:16:38.559Z,963.36
2018-05-10T00:17:38.554Z,963.37
2018-05-10T00:18:38.549Z,963.40
2018-05-10T00:19:38.540Z,963.37
2018-05-10T00:20:38.536Z,963.41
2018-05-10T00:21:38.531Z,963.37
2018-05-10T00:22:38.523Z,963.38
2018-05-10T00:23:38.516Z,963.38
2018-05-10T00:24:38.514Z,963.37
2018-05-10T00:25:38.507Z,963.39
2018-05-10T00:26:38.498Z,963.39
2018-05-10T00:27:38.500Z,963.42
2018-05-10T00:28:38.487Z,963.40
2018-05-10T00:29:38.480Z,963.40
2018-05-10T00:30:38.473Z,963.40
2018-05-10T00:31:38.465Z,963.40
2018-05-10T00:32:38.463Z,963.41
2018-05-10T00:33:38.453Z,963.44
2018-05-10T00:34:38.452Z,963.42
2018-05-10T00:35:38.441Z,963.42
2018-05-10T00:36:38.439Z,963.40
2018-05-10T00:37:38.430Z,963.39
2018-05-10T00:38:38.421Z,963.40
2018-05-10T00:39:38.416Z,963.36
2018-05-10T00:40:38.410Z,963.37
2018-05-10T00:41:38.404Z,963.34
2018-05-10T00:43:38.393Z,963.32
2018-05-10T00:44:38.383Z,963.33
2018-05-10T00:45:38.380Z,963.33
2018-05-10T00:46:38.377Z,963.30
2018-05-10T00:47:38.371Z,963.27
2018-05-10T00:48:38.358Z,963.30
2018-05-10T00:49:38.354Z,963.30
2018-05-10T00:50:38.347Z,963.29
2018-05-10T00:51:38.340Z,963.26
2018-05-10T00:52:38.338Z,963.28
2018-05-10T00:53:38.329Z,963.25
2018-05-10T00:54:38.322Z,963.24
2018-05-10T00:55:38.317Z,963.27
2018-05-10T00:56:38.314Z,963.26
2018-05-10T00:57:38.303Z,963.25
2018-05-10T00:58:38.295Z,963.24
2018-05-10T00:59:38.287Z,963.26
2018-05-10T01:00:38.282Z,963.22
2018-05-10T01:01:38.276Z,963.23
2018-05-10T01:02:38.267Z,963.21
2018-05-10T01:03:38.261Z,963.26
2018-05-10T01:04:38.259Z,963.25
2018-05-10T01:05:38.247Z,963.19
2018-05-10T01:06:38.242Z,963.21
2018-05-10T01:07:38.238Z,963.27
2018-05-10T01:08:38.229Z,963.27
2018-05-10T01:09:38.224Z,963.30
2018-05-10T01:10:38.213Z,963.31
2018-05-10T01:11:38.211Z,963.28
2018-05-10T01:12:38.202Z,963.27
2018-05-10T01:13:38.193Z,963.29
2018-05-10T01:14:38.187Z,963.27
2018-05-10T01:15:38.180Z,963.29
2018-05-10T01:16:38.177Z,963.32
2018-05-10T01:17:38.166Z,963.30
2018-05-10T01:18:38.160Z,963.33
2018-05-10T01:19:38.156Z,963.34
2018-05-10T01:20:38.147Z,963.34
2018-05-10T01:21:38.139Z,963.33
2018-05-10T01:22:38.132Z,963.36
2018-05-10T01:23:38.129Z,963.36
2018-05-10T01:24:38.125Z,963.41
2018-05-10T01:25:38.112Z,963.38
2018-05-10T01:26:38.103Z,963.37
2018-05-10T01:27:38.101Z,963.36
2018-05-10T01:28:38.091Z,963.39
2018-05-10T01:29:38.087Z,963.36
2018-05-10T01:30:38.078Z,963.41
2018-05-10T01:31:38.072Z,963.42
2018-05-10T01:32:38.069Z,963.40
2018-05-10T01:33:38.064Z,963.39
2018-05-10T01:34:38.051Z,963.40
2018-05-10T01:35:38.048Z,963.39
2018-05-10T01:36:38.039Z,963.38
2018-05-10T01:37:38.035Z,963.38
2018-05-10T01:38:38.025Z,963.37
2018-05-10T01:39:38.018Z,963.41
2018-05-10T01:40:38.008Z,963.37
2018-05-10T01:41:38.001Z,963.38
2018-05-10T01:42:37.994Z,963.39
2018-05-10T01:43:37.991Z,963.37
2018-05-10T01:44:37.984Z,963.35
2018-05-10T01:45:37.977Z,963.44
2018-05-10T01:46:37.972Z,963.40
2018-05-10T01:47:37.962Z,963.40
2018-05-10T01:48:37.955Z,963.42
2018-05-10T01:49:37.956Z,963.38
2018-05-10T01:50:37.945Z,963.39
2018-05-10T01:51:37.934Z,963.40
2018-05-10T01:52:37.930Z,963.42
2018-05-10T01:53:37.922Z,963.42
2018-05-10T01:54:37.916Z,963.41
2018-05-10T01:55:37.905Z,963.39
2018-05-10T01:56:37.904Z,963.40
2018-05-10T01:57:37.892Z,963.43
2018-05-10T01:58:37.888Z,963.40
2018-05-10T01:59:37.878Z,963.41
2018-05-10T02:00:37.874Z,963.39
2018-05-10T02:01:37.869Z,963.41
2018-05-10T02:02:37.861Z,963.42
2018-05-10T02:03:37.858Z,963.42
2018-05-10T02:04:37.852Z,963.47
2018-05-10T02:05:37.843Z,963.48
2018-05-10T02:06:37.831Z,963.53
2018-05-10T02:07:37.832Z,963.51
2018-05-10T02:08:37.826Z,963.54
2018-05-10T02:09:37.817Z,963.56
2018-05-10T02:10:37.808Z,963.57
2018-05-10T02:11:37.800Z,963.55
2018-05-10T02:12:37.794Z,963.54
2018-05-10T02:13:37.789Z,963.59
2018-05-10T02:14:37.782Z,963.60
2018-05-10T02:15:37.775Z,963.59
2018-05-10T02:16:37.769Z,963.63
2018-05-10T02:17:37.761Z,963.60
2018-05-10T02:18:37.757Z,963.64
2018-05-10T02:19:37.748Z,963.64
2018-05-10T02:20:37.740Z,963.68
2018-05-10T02:21:37.735Z,963.68
2018-05-10T02:22:37.727Z,963.68
2018-05-10T02:23:37.718Z,963.68
2018-05-10T02:24:37.716Z,963.69
2018-05-10T02:25:37.705Z,963.69
2018-05-10T02:26:37.714Z,963.71
2018-05-10T02:27:37.694Z,963.68
2018-05-10T02:28:37.692Z,963.66
2018-05-10T02:29:37.760Z,963.67
2018-05-10T02:30:37.673Z,963.68
2018-05-10T02:31:37.668Z,963.72
2018-05-10T02:32:37.662Z,963.68
2018-05-10T02:33:37.653Z,963.67
2018-05-10T02:34:37.648Z,963.65
2018-05-10T02:35:37.639Z,963.70
2018-05-10T02:36:37.635Z,963.67
2018-05-10T02:37:37.629Z,963.68
2018-05-10T02:38:37.619Z,963.66
2018-05-10T02:39:37.613Z,963.67
2018-05-10T02:40:37.611Z,963.70
2018-05-10T02:41:37.601Z,963.73
2018-05-10T02:42:37.593Z,963.69
2018-05-10T02:43:37.587Z,963.75
2018-05-10T02:44:37.579Z,963.74
2018-05-10T02:45:37.576Z,963.73
2018-05-10T02:46:37.567Z,963.74
2018-05-10T02:47:37.562Z,963.75
2018-05-10T02:48:37.554Z,963.73
2018-05-10T02:49:37.550Z,963.75
2018-05-10T02:50:37.541Z,963.74
2018-05-10T02:51:37.534Z,963.76
2018-05-10T02:52:37.528Z,963.71
2018-05-10T02:53:37.534Z,963.72
2018-05-10T02:54:37.516Z,963.73
2018-05-10T02:55:37.511Z,963.74
2018-05-10T02:56:37.508Z,963.73
2018-05-10T02:57:37.503Z,963.79
2018-05-10T02:58:37.488Z,963.75
2018-05-10T02:59:37.481Z,963.78
2018-05-10T03:00:37.477Z,963.75
2018-05-10T03:01:37.472Z,963.78
2018-05-10T03:02:37.460Z,963.84
2018-05-10T03:03:37.457Z,963.86
2018-05-10T03:04:37.449Z,963.83
2018-05-10T03:05:37.446Z,963.93
2018-05-10T03:06:37.436Z,963.90
2018-05-10T03:07:37.431Z,963.83
2018-05-10T03:08:37.423Z,963.95
2018-05-10T03:09:37.417Z,963.98
2018-05-10T03:10:37.410Z,963.85
2018-05-10T03:11:37.403Z,963.98
2018-05-10T03:12:37.401Z,964.01
2018-05-10T03:13:37.392Z,964.04
2018-05-10T03:14:37.387Z,964.03
2018-05-10T03:15:37.376Z,964.04
2018-05-10T03:16:37.372Z,964.08
2018-05-10T03:17:37.363Z,964.08
2018-05-10T03:18:37.356Z,964.06
2018-05-10T03:19:37.354Z,964.10
2018-05-10T03:20:37.345Z,964.10
2018-05-10T03:21:37.414Z,964.07
2018-05-10T03:22:37.331Z,964.07
2018-05-10T03:23:37.326Z,964.11
2018-05-10T03:24:37.323Z,964.10
2018-05-10T03:25:37.313Z,964.10
2018-05-10T03:26:37.306Z,964.16
2018-05-10T03:27:37.300Z,964.11
2018-05-10T03:28:37.289Z,964.16
2018-05-10T03:29:37.288Z,964.15
2018-05-10T03:30:37.277Z,964.15
2018-05-10T03:31:37.278Z,964.15
2018-05-10T03:32:37.262Z,964.16
2018-05-10T03:33:37.260Z,964.15
2018-05-10T03:34:37.253Z,964.14
2018-05-10T03:35:37.244Z,964.15
2018-05-10T03:36:37.241Z,964.11
2018-05-10T03:37:37.238Z,964.14
2018-05-10T03:38:37.226Z,964.12
2018-05-10T03:39:37.220Z,964.12
2018-05-10T03:40:37.330Z,964.13
2018-05-10T03:41:37.209Z,964.14
2018-05-10T03:42:37.249Z,964.14
2018-05-10T03:43:37.198Z,964.18
2018-05-10T03:44:37.188Z,964.16
2018-05-10T03:45:37.182Z,964.17
2018-05-10T03:46:37.175Z,964.15
2018-05-10T03:47:37.167Z,964.20
2018-05-10T03:48:37.160Z,964.22
2018-05-10T03:49:37.154Z,964.23
2018-05-10T03:50:37.145Z,964.26
2018-05-10T03:51:37.142Z,964.27
2018-05-10T03:52:37.133Z,964.23
2018-05-10T03:53:37.128Z,964.29
2018-05-10T03:54:37.122Z,964.30
2018-05-10T03:55:37.112Z,964.29
2018-05-10T03:56:37.107Z,964.28
2018-05-10T03:57:37.104Z,964.32
2018-05-10T03:58:37.095Z,964.30
2018-05-10T03:59:37.086Z,964.30
2018-05-10T04:00:37.081Z,964.31
2018-05-10T04:01:37.073Z,964.32
2018-05-10T04:02:37.065Z,964.32
2018-05-10T04:03:37.066Z,964.33
2018-05-10T04:04:37.062Z,964.36
2018-05-10T04:05:37.046Z,964.38
2018-05-10T04:06:37.044Z,964.41
2018-05-10T04:07:37.035Z,964.38
2018-05-10T04:08:37.027Z,964.42
2018-05-10T04:09:37.020Z,964.42
2018-05-10T04:10:37.012Z,964.42
2018-05-10T04:11:37.007Z,964.44
2018-05-10T04:12:37.003Z,964.48
2018-05-10T04:13:36.996Z,964.44
2018-05-10T04:14:36.986Z,964.50
2018-05-10T04:15:37.007Z,964.48
2018-05-10T04:16:36.975Z,964.44
2018-05-10T04:17:36.967Z,964.49
2018-05-10T04:18:36.968Z,964.52
2018-05-10T04:19:36.956Z,964.54
2018-05-10T04:20:36.952Z,964.57
2018-05-10T04:21:36.942Z,964.59
2018-05-10T04:22:36.934Z,964.60
2018-05-10T04:23:36.926Z,964.60
2018-05-10T04:24:36.919Z,964.58
2018-05-10T04:25:36.916Z,964.65
2018-05-10T04:26:36.908Z,964.65
2018-05-10T04:27:36.902Z,964.69
2018-05-10T04:28:36.895Z,964.66
2018-05-10T04:29:36.893Z,964.68
2018-05-10T04:30:36.883Z,964.73
2018-05-10T04:31:36.876Z,964.69
2018-05-10T04:32:36.867Z,964.69
2018-05-10T04:33:36.862Z,964.72
2018-05-10T04:34:36.858Z,964.72
2018-05-10T04:35:36.848Z,964.77
2018-05-10T04:36:36.848Z,964.76
2018-05-10T04:37:36.835Z,964.76
2018-05-10T04:38:36.829Z,964.78
2018-05-10T04:39:36.826Z,964.78
2018-05-10T04:40:36.816Z,964.76
2018-05-10T04:41:36.905Z,964.77
2018-05-10T04:42:36.809Z,964.75
2018-05-10T04:43:36.801Z,964.76
2018-05-10T04:44:36.790Z,964.79
2018-05-10T04:45:36.788Z,964.78
2018-05-10T04:46:36.780Z,964.81
2018-05-10T04:47:36.772Z,964.84
2018-05-10T04:48:36.769Z,964.82
2018-05-10T04:49:36.760Z,964.81
2018-05-10T04:50:36.757Z,964.81
2018-05-10T04:51:36.743Z,964.77
2018-05-10T04:52:36.746Z,964.83
2018-05-10T04:53:36.733Z,964.78
2018-05-10T04:54:36.728Z,964.81
2018-05-10T04:55:36.720Z,964.80
2018-05-10T04:56:36.713Z,964.85
2018-05-10T04:57:36.708Z,964.83
2018-05-10T04:58:36.702Z,964.84
2018-05-10T04:59:36.703Z,964.87
2018-05-10T05:00:36.685Z,964.95
2018-05-10T05:01:36.680Z,964.99
2018-05-10T05:02:36.672Z,965.02
2018-05-10T05:03:36.663Z,965.01
2018-05-10T05:04:36.660Z,965.01
2018-05-10T05:05:36.651Z,965.01
2018-05-10T05:06:36.645Z,965.02
2018-05-10T05:07:36.641Z,965.03
2018-05-10T05:08:36.633Z,965.03
2018-05-10T05:09:36.624Z,965.06
2018-05-10T05:10:36.617Z,965.12
2018-05-10T05:11:36.617Z,965.10
2018-05-10T05:12:36.611Z,965.08
2018-05-10T05:13:36.600Z,965.16
2018-05-10T05:14:36.591Z,965.09
2018-05-10T05:15:36.584Z,965.16
2018-05-10T05:16:36.589Z,965.18
2018-05-10T05:17:36.575Z,965.17
2018-05-10T05:18:36.565Z,965.19
2018-05-10T05:19:36.562Z,965.17
2018-05-10T05:20:36.562Z,965.22
2018-05-10T05:21:36.592Z,965.21
2018-05-10T05:22:36.541Z,965.17
2018-05-10T05:23:36.533Z,965.21
2018-05-10T05:24:36.529Z,965.20
2018-05-10T05:25:36.521Z,965.19
2018-05-10T05:26:36.519Z,965.20
2018-05-10T05:27:36.508Z,965.23
2018-05-10T05:28:36.499Z,965.30
2018-05-10T05:29:36.494Z,965.33
2018-05-10T05:30:36.491Z,965.29
2018-05-10T05:31:36.481Z,965.29
2018-05-10T05:32:36.492Z,965.34
2018-05-10T05:33:36.470Z,965.35
2018-05-10T05:34:36.460Z,965.40
2018-05-10T05:35:36.503Z,965.40
2018-05-10T05:36:36.520Z,965.43
2018-05-10T05:37:36.442Z,965.48
2018-05-10T05:38:36.436Z,965.48
2018-05-10T05:39:36.430Z,965.45
2018-05-10T05:40:36.424Z,965.52
2018-05-10T05:41:36.418Z,965.51
2018-05-10T05:42:36.408Z,965.55
2018-05-10T05:43:36.462Z,965.55
2018-05-10T05:44:36.395Z,965.58
2018-05-10T05:45:36.391Z,965.56
2018-05-10T05:46:36.380Z,965.61
2018-05-10T05:47:36.377Z,965.60
2018-05-10T05:48:36.369Z,965.62
2018-05-10T05:49:36.362Z,965.62
2018-05-10T05:50:36.359Z,965.69
2018-05-10T05:51:36.348Z,965.68
2018-05-10T05:52:36.346Z,965.68
2018-05-10T05:53:36.339Z,965.72
2018-05-10T05:54:36.327Z,965.72
2018-05-10T05:55:36.324Z,965.77
2018-05-10T05:56:36.315Z,965.76
2018-05-10T05:57:36.309Z,965.80
2018-05-10T05:58:36.303Z,965.82
2018-05-10T05:59:36.295Z,965.82
2018-05-10T06:00:36.288Z,965.86
2018-05-10T06:01:36.281Z,965.96
2018-05-10T06:02:36.271Z,965.90
2018-05-10T06:03:36.268Z,965.97
2018-05-10T06:04:36.258Z,965.96
2018-05-10T06:05:36.253Z,966.02
2018-05-10T06:06:36.246Z,965.96
2018-05-10T06:07:36.238Z,966.02
2018-05-10T06:08:36.307Z,966.01
2018-05-10T06:09:36.227Z,966.04
2018-05-10T06:10:36.227Z,966.03
2018-05-10T06:11:36.215Z,966.01
2018-05-10T06:12:36.210Z,966.06
2018-05-10T06:13:36.202Z,966.09
2018-05-10T06:14:36.191Z,966.11
2018-05-10T06:15:36.290Z,966.12
2018-05-10T06:16:36.182Z,966.13
2018-05-10T06:17:36.174Z,966.12
2018-05-10T06:18:36.167Z,966.15
2018-05-10T06:19:36.158Z,966.17
2018-05-10T06:20:36.152Z,966.18
2018-05-10T06:21:36.148Z,966.18
2018-05-10T06:22:36.140Z,966.21
2018-05-10T06:23:36.136Z,966.24
2018-05-10T06:24:36.126Z,966.23
2018-05-10T06:25:36.123Z,966.24
2018-05-10T06:26:36.114Z,966.24
2018-05-10T06:27:36.108Z,966.21
2018-05-10T06:28:36.102Z,966.24
2018-05-10T06:29:36.096Z,966.28
2018-05-10T06:30:36.087Z,966.27
2018-05-10T06:31:36.080Z,966.26
2018-05-10T06:32:36.074Z,966.23
2018-05-10T06:33:36.067Z,966.31
2018-05-10T06:34:36.061Z,966.29
2018-05-10T06:35:36.057Z,966.31
2018-05-10T06:36:36.046Z,966.33
2018-05-10T06:37:36.041Z,966.36
2018-05-10T06:38:36.037Z,966.40
2018-05-10T06:39:36.028Z,966.40
2018-05-10T06:40:36.019Z,966.43
2018-05-10T06:41:36.023Z,966.44
2018-05-10T06:42:36.009Z,966.48
2018-05-10T06:43:36.003Z,966.48
2018-05-10T06:44:35.995Z,966.43
2018-05-10T06:45:35.991Z,966.51
2018-05-10T06:46:35.983Z,966.47
2018-05-10T06:47:35.973Z,966.49
2018-05-10T06:48:35.968Z,966.52
2018-05-10T06:49:35.962Z,966.57
2018-05-10T06:50:35.953Z,966.55
2018-05-10T06:51:35.949Z,966.60
2018-05-10T06:52:35.941Z,966.56
2018-05-10T06:53:35.937Z,966.61
2018-05-10T06:54:35.941Z,966.60
2018-05-10T06:55:35.922Z,966.62
2018-05-10T06:56:35.913Z,966.63
2018-05-10T06:57:35.905Z,966.63
2018-05-10T06:58:35.901Z,966.70
2018-05-10T06:59:35.893Z,966.68
2018-05-10T07:00:35.883Z,966.71
2018-05-10T07:01:35.879Z,966.67
2018-05-10T07:02:35.867Z,966.72
2018-05-10T07:03:35.864Z,966.78
2018-05-10T07:04:35.856Z,966.77
2018-05-10T07:05:35.848Z,966.80
2018-05-10T07:06:35.845Z,966.77
2018-05-10T07:07:35.835Z,966.79
2018-05-10T07:08:35.834Z,966.82
2018-05-10T07:09:35.949Z,966.84
2018-05-10T07:10:35.817Z,966.83
2018-05-10T07:11:35.809Z,966.90
2018-05-10T07:12:35.805Z,966.87
2018-05-10T07:13:35.796Z,966.88
2018-05-10T07:14:35.783Z,966.85
2018-05-10T07:15:35.783Z,966.88
2018-05-10T07:16:35.774Z,966.90
2018-05-10T07:17:35.767Z,966.90
2018-05-10T07:18:35.760Z,966.88
2018-05-10T07:19:35.752Z,966.87
2018-05-10T07:20:35.747Z,966.92
2018-05-10T07:21:35.739Z,966.92
2018-05-10T07:22:35.731Z,966.90
2018-05-10T07:23:35.722Z,966.91
2018-05-10T07:24:35.716Z,966.93
2018-05-10T07:25:35.712Z,967.01
2018-05-10T07:26:35.703Z,966.96
2018-05-10T07:27:35.694Z,966.97
2018-05-10T07:28:35.688Z,967.00
2018-05-10T07:29:35.680Z,967.03
2018-05-10T07:30:35.672Z,967.04
2018-05-10T07:31:35.667Z,967.06
2018-05-10T07:32:35.659Z,967.05
2018-05-10T07:33:35.653Z,967.06
2018-05-10T07:34:35.643Z,967.07
2018-05-10T07:35:35.638Z,967.07
2018-05-10T07:36:35.631Z,967.08
2018-05-10T07:37:35.623Z,967.09
2018-05-10T07:38:35.615Z,967.11
2018-05-10T07:39:35.609Z,967.12
2018-05-10T07:40:35.600Z,967.10
2018-05-10T07:41:35.594Z,967.12
2018-05-10T07:42:35.587Z,967.16
2018-05-10T07:43:35.583Z,967.14
2018-05-10T07:44:35.571Z,967.14
2018-05-10T07:45:35.568Z,967.16
2018-05-10T07:46:35.558Z,967.21
2018-05-10T07:47:35.549Z,967.21
2018-05-10T07:48:35.546Z,967.23
2018-05-10T07:49:35.537Z,967.23
2018-05-10T07:50:35.530Z,967.27
2018-05-10T07:51:35.522Z,967.26
2018-05-10T07:52:35.511Z,967.29
2018-05-10T07:53:35.504Z,967.29
2018-05-10T07:54:35.495Z,967.31
2018-05-10T07:55:35.489Z,967.32
2018-05-10T07:56:35.488Z,967.34
2018-05-10T07:57:35.477Z,967.32
2018-05-10T07:58:35.472Z,967.38
2018-05-10T07:59:35.462Z,967.36
2018-05-10T08:00:35.455Z,967.40
2018-05-10T08:01:35.451Z,967.38
2018-05-10T08:02:35.447Z,967.40
2018-05-10T08:03:35.432Z,967.43
2018-05-10T08:04:35.429Z,967.43
2018-05-10T08:05:35.418Z,967.46
2018-05-10T08:06:35.414Z,967.48
2018-05-10T08:07:35.405Z,967.50
2018-05-10T08:08:35.398Z,967.52
2018-05-10T08:09:35.387Z,967.49
2018-05-10T08:10:35.383Z,967.51
2018-05-10T08:11:35.377Z,967.50
2018-05-10T08:12:35.370Z,967.51
2018-05-10T08:13:35.360Z,967.54
2018-05-10T08:14:35.353Z,967.56
2018-05-10T08:15:35.354Z,967.58
2018-05-10T08:16:35.345Z,967.61
2018-05-10T08:17:35.335Z,967.57
2018-05-10T08:18:35.324Z,967.62
2018-05-10T08:19:35.316Z,967.60
2018-05-10T08:20:35.310Z,967.56
2018-05-10T08:21:35.306Z,967.60
2018-05-10T08:22:35.298Z,967.59
2018-05-10T08:23:35.289Z,967.63
2018-05-10T08:24:35.284Z,967.60
2018-05-10T08:25:35.278Z,967.64
2018-05-10T08:26:35.272Z,967.63
2018-05-10T08:27:35.264Z,967.63
2018-05-10T08:28:35.261Z,967.63
2018-05-10T08:29:35.247Z,967.63
2018-05-10T08:30:35.239Z,967.64
2018-05-10T08:31:35.235Z,967.68
2018-05-10T08:32:35.224Z,967.68
2018-05-10T08:33:35.222Z,967.69
2018-05-10T08:34:35.210Z,967.72
2018-05-10T08:35:35.207Z,967.70
2018-05-10T08:36:35.242Z,967.74
2018-05-10T08:37:35.192Z,967.71
2018-05-10T08:38:35.181Z,967.71
2018-05-10T08:39:35.175Z,967.70
2018-05-10T08:40:35.168Z,967.71
2018-05-10T08:41:35.167Z,967.72
2018-05-10T08:42:35.155Z,967.77
2018-05-10T08:43:35.148Z,967.76
2018-05-10T08:44:35.139Z,967.78
2018-05-10T08:45:35.147Z,967.76
2018-05-10T08:46:35.125Z,967.77
2018-05-10T08:47:35.121Z,967.79
2018-05-10T08:48:35.116Z,967.76
2018-05-10T08:49:35.105Z,967.82
2018-05-10T08:50:35.096Z,967.76
2018-05-10T08:51:35.133Z,967.77
2018-05-10T08:52:35.089Z,967.81
2018-05-10T08:53:35.077Z,967.78
2018-05-10T08:54:35.069Z,967.79
2018-05-10T08:55:35.062Z,967.82
2018-05-10T08:56:35.053Z,967.80
2018-05-10T08:57:35.046Z,967.79
2018-05-10T08:58:35.041Z,967.82
2018-05-10T08:59:35.032Z,967.86
2018-05-10T09:00:35.029Z,967.87
2018-05-10T09:01:35.023Z,967.87
2018-05-10T09:02:35.016Z,967.85
2018-05-10T09:03:35.004Z,967.89
2018-05-10T09:04:34.998Z,967.87
2018-05-10T09:05:34.993Z,967.94
2018-05-10T09:06:34.984Z,967.93
2018-05-10T09:07:34.990Z,967.94
2018-05-10T09:08:34.973Z,967.97
2018-05-10T09:09:34.969Z,967.98
2018-05-10T09:10:34.957Z,967.99
2018-05-10T09:11:35.221Z,967.98
2018-05-10T09:12:34.944Z,967.97
2018-05-10T09:13:34.939Z,967.97
2018-05-10T09:14:34.930Z,968.01
2018-05-10T09:15:34.923Z,967.97
2018-05-10T09:16:34.914Z,967.95
2018-05-10T09:17:34.908Z,967.99
2018-05-10T09:18:34.904Z,968.02
2018-05-10T09:19:34.894Z,967.99
2018-05-10T09:20:34.888Z,968.02
2018-05-10T09:21:34.882Z,968.01
2018-05-10T09:22:34.876Z,968.04
2018-05-10T09:23:34.868Z,968.06
2018-05-10T09:24:34.864Z,968.03
2018-05-10T09:25:34.853Z,968.06
2018-05-10T09:26:34.844Z,968.07
2018-05-10T09:27:34.838Z,968.09
2018-05-10T09:28:34.836Z,968.06
2018-05-10T09:29:34.828Z,968.04
2018-05-10T09:30:34.819Z,968.05
2018-05-10T09:31:34.881Z,968.05
2018-05-10T09:32:34.811Z,968.06
2018-05-10T09:33:34.802Z,968.09
2018-05-10T09:34:34.790Z,968.05
2018-05-10T09:35:34.788Z,968.05
2018-05-10T09:36:34.784Z,968.07
2018-05-10T09:37:34.774Z,968.07
2018-05-10T09:38:34.765Z,968.05
2018-05-10T09:39:34.870Z,968.02
2018-05-10T09:40:34.754Z,968.07
2018-05-10T09:41:34.748Z,968.02
2018-05-10T09:42:34.743Z,968.00
2018-05-10T09:43:34.735Z,968.02
2018-05-10T09:44:34.727Z,968.03
2018-05-10T09:45:34.721Z,967.99
2018-05-10T09:46:34.714Z,968.02
2018-05-10T09:47:34.706Z,968.07
2018-05-10T09:48:34.700Z,968.06
2018-05-10T09:49:34.699Z,968.06
2018-05-10T09:50:34.692Z,968.05
2018-05-10T09:51:34.682Z,968.05
2018-05-10T09:52:34.714Z,968.03
2018-05-10T09:53:34.673Z,968.09
2018-05-10T09:54:34.664Z,968.09
2018-05-10T09:55:34.656Z,968.12
2018-05-10T09:56:34.652Z,968.12
2018-05-10T09:57:34.645Z,968.11
2018-05-10T09:58:34.638Z,968.12
2018-05-10T09:59:34.632Z,968.16
2018-05-10T10:00:34.625Z,968.17
2018-05-10T10:01:34.619Z,968.17
2018-05-10T10:02:34.620Z,968.17
2018-05-10T10:03:34.615Z,968.20
2018-05-10T10:04:34.601Z,968.24
2018-05-10T10:05:34.598Z,968.24
2018-05-10T10:06:34.589Z,968.23
2018-05-10T10:07:34.596Z,968.23
2018-05-10T10:08:34.587Z,968.24
2018-05-10T10:09:34.580Z,968.24
2018-05-10T10:10:34.563Z,968.25
2018-05-10T10:11:34.587Z,968.25
2018-05-10T10:12:34.551Z,968.27
2018-05-10T10:13:34.548Z,968.27
2018-05-10T10:14:34.543Z,968.28
2018-05-10T10:15:34.537Z,968.35
2018-05-10T10:16:34.528Z,968.31
2018-05-10T10:17:34.617Z,968.31
2018-05-10T10:18:34.516Z,968.35
2018-05-10T10:19:34.513Z,968.39
2018-05-10T10:20:34.504Z,968.38
2018-05-10T10:21:34.499Z,968.38
2018-05-10T10:22:34.492Z,968.40
2018-05-10T10:23:34.486Z,968.39
2018-05-10T10:24:34.477Z,968.39
2018-05-10T10:25:34.474Z,968.41
2018-05-10T10:26:34.466Z,968.39
2018-05-10T10:27:34.463Z,968.43
2018-05-10T10:28:34.453Z,968.42
2018-05-10T10:29:34.451Z,968.44
2018-05-10T10:30:34.443Z,968.45
2018-05-10T10:31:34.438Z,968.43
2018-05-10T10:32:34.430Z,968.43
2018-05-10T10:33:34.426Z,968.47
2018-05-10T10:34:34.536Z,968.47
2018-05-10T10:35:34.412Z,968.47
2018-05-10T10:36:34.413Z,968.46
2018-05-10T10:37:34.400Z,968.48
2018-05-10T10:38:34.396Z,968.57
2018-05-10T10:39:34.391Z,968.55
2018-05-10T10:40:34.382Z,968.54
2018-05-10T10:41:34.379Z,968.57
2018-05-10T10:42:34.373Z,968.59
2018-05-10T10:43:34.368Z,968.60
2018-05-10T10:44:34.368Z,968.60
2018-05-10T10:45:34.353Z,968.63
2018-05-10T10:46:34.345Z,968.63
2018-05-10T10:47:34.340Z,968.67
2018-05-10T10:48:34.338Z,968.69
2018-05-10T10:49:34.332Z,968.71
2018-05-10T10:50:34.324Z,968.72
2018-05-10T10:51:34.324Z,968.75
2018-05-10T10:52:34.312Z,968.77
2018-05-10T10:53:34.310Z,968.78
2018-05-10T10:54:34.297Z,968.81
2018-05-10T10:55:34.297Z,968.81
2018-05-10T10:56:34.288Z,968.80
2018-05-10T10:57:34.294Z,968.82
2018-05-10T10:58:34.276Z,968.80
2018-05-10T10:59:34.268Z,968.80
2018-05-10T11:00:34.260Z,968.78
2018-05-10T11:01:34.339Z,968.79
2018-05-10T11:02:34.250Z,968.83
2018-05-10T11:03:34.241Z,968.84
2018-05-10T11:04:34.234Z,968.77
2018-05-10T11:05:34.228Z,968.80
2018-05-10T11:06:34.222Z,968.79
2018-05-10T11:07:34.218Z,968.80
2018-05-10T11:08:34.211Z,968.79
2018-05-10T11:09:34.205Z,968.83
2018-05-10T11:10:34.200Z,968.81
2018-05-10T11:11:34.196Z,968.83
2018-05-10T11:12:34.184Z,968.86
2018-05-10T11:13:34.182Z,968.86
2018-05-10T11:14:34.169Z,968.83
2018-05-10T11:15:34.170Z,968.91
2018-05-10T11:16:34.158Z,968.89
2018-05-10T11:17:34.154Z,968.91
2018-05-10T11:18:34.147Z,968.90
2018-05-10T11:19:34.144Z,968.94
2018-05-10T11:20:34.136Z,968.96
2018-05-10T11:21:34.134Z,968.96
2018-05-10T11:22:34.205Z,968.92
2018-05-10T11:23:34.116Z,969.01
2018-05-10T11:24:34.110Z,968.97
2018-05-10T11:25:34.104Z,968.99
2018-05-10T11:26:34.098Z,968.96
2018-05-10T11:27:34.098Z,969.00
2018-05-10T11:28:34.087Z,968.99
2018-05-10T11:29:34.077Z,968.98
2018-05-10T11:30:34.072Z,969.03
2018-05-10T11:31:34.070Z,969.03
2018-05-10T11:32:34.059Z,969.05
2018-05-10T11:33:34.055Z,969.11
2018-05-10T11:34:34.047Z,969.04
2018-05-10T11:35:34.040Z,969.08
2018-05-10T11:36:34.034Z,969.13
2018-05-10T11:37:34.033Z,969.13
2018-05-10T11:38:34.024Z,969.17
2018-05-10T11:39:34.021Z,969.12
2018-05-10T11:40:34.009Z,969.14
2018-05-10T11:41:34.002Z,969.17
2018-05-10T11:42:34.042Z,969.12
2018-05-10T11:43:33.993Z,969.10
2018-05-10T11:44:33.997Z,969.06
2018-05-10T11:45:33.978Z,969.08
2018-05-10T11:46:33.969Z,969.05
2018-05-10T11:47:33.963Z,969.10
2018-05-10T11:48:33.965Z,969.07
2018-05-10T11:49:33.954Z,969.07
2018-05-10T11:50:33.945Z,969.10
2018-05-10T11:51:33.940Z,969.06
2018-05-10T11:52:33.937Z,969.09
2018-05-10T11:53:33.929Z,969.09
2018-05-10T11:54:33.923Z,969.09
2018-05-10T11:55:33.915Z,969.09
2018-05-10T11:56:33.909Z,969.06
2018-05-10T11:57:33.905Z,969.08
2018-05-10T11:58:33.895Z,969.12
2018-05-10T11:59:33.891Z,969.08
2018-05-10T12:00:33.888Z,969.13
2018-05-10T12:01:33.880Z,969.16
2018-05-10T12:02:33.929Z,969.18
2018-05-10T12:03:33.870Z,969.17
2018-05-10T12:04:33.861Z,969.18
2018-05-10T12:05:33.860Z,969.22
2018-05-10T12:06:33.849Z,969.19
2018-05-10T12:07:33.844Z,969.21
2018-05-10T12:08:33.846Z,969.23
2018-05-10T12:09:33.835Z,969.22
2018-05-10T12:10:33.825Z,969.24
2018-05-10T12:11:33.820Z,969.24
2018-05-10T12:12:33.817Z,969.25
2018-05-10T12:13:33.811Z,969.24
2018-05-10T12:14:33.806Z,969.27
2018-05-10T12:15:33.798Z,969.25
2018-05-10T12:16:33.798Z,969.20
2018-05-10T12:17:33.789Z,969.21
2018-05-10T12:18:33.785Z,969.26
2018-05-10T12:19:33.778Z,969.23
2018-05-10T12:20:33.819Z,969.29
2018-05-10T12:21:33.763Z,969.29
2018-05-10T12:22:33.758Z,969.35
2018-05-10T12:23:33.754Z,969.40
2018-05-10T12:24:33.751Z,969.43
2018-05-10T12:25:33.753Z,969.38
2018-05-10T12:26:33.739Z,969.41
2018-05-10T12:27:33.736Z,969.46
2018-05-10T12:28:33.729Z,969.44
2018-05-10T12:29:33.722Z,969.45